createdAt,value
2023-05-05T00:01:05.003Z,8.46
2023-05-05T00:03:35.327Z,8.48
2023-05-05T00:06:03.682Z,8.49
2023-05-05T00:08:31.779Z,8.48
2023-05-05T00:10:59.646Z,8.46
2023-05-05T00:13:27.823Z,8.42
2023-05-05T00:15:55.737Z,8.29
2023-05-05T00:18:25.004Z,8.33
2023-05-05T00:20:53.338Z,8.37
2023-05-05T00:23:21.353Z,8.30
2023-05-05T00:25:49.264Z,8.32
2023-05-05T00:28:17.177Z,8.26
2023-05-05T00:30:45.148Z,8.33
2023-05-05T00:33:13.308Z,8.35
2023-05-05T00:35:42.724Z,8.41
2023-05-05T00:38:10.619Z,8.41
2023-05-05T00:40:38.962Z,8.35
2023-05-05T00:43:07.694Z,8.31
2023-05-05T00:45:37.075Z,8.42
2023-05-05T00:48:05.466Z,8.31
2023-05-05T00:50:33.395Z,8.29
2023-05-05T00:53:03.453Z,8.24
2023-05-05T00:55:31.857Z,8.22
2023-05-05T00:58:00.596Z,8.24
2023-05-05T01:00:29.003Z,8.17
2023-05-05T01:02:57.225Z,8.13
2023-05-05T01:05:25.871Z,8.15
2023-05-05T01:08:07.201Z,8.09
2023-05-05T01:10:37.981Z,8.11
2023-05-05T01:13:15.080Z,8.10
2023-05-05T01:15:47.550Z,8.10
2023-05-05T01:18:20.033Z,8.13
2023-05-05T01:20:52.683Z,8.19
2023-05-05T01:23:50.163Z,8.14
2023-05-05T01:26:35.986Z,8.12
2023-05-05T01:29:15.604Z,8.17
2023-05-05T01:31:51.790Z,8.16
2023-05-05T01:34:25.216Z,8.16
2023-05-05T01:36:58.223Z,8.16
2023-05-05T01:39:27.199Z,8.18
2023-05-05T01:41:58.929Z,8.11
2023-05-05T01:44:29.057Z,8.11
2023-05-05T01:46:59.931Z,8.14
2023-05-05T01:49:28.932Z,8.14
2023-05-05T01:51:59.549Z,8.17
2023-05-05T01:54:29.974Z,8.27
2023-05-05T01:56:58.631Z,8.24
2023-05-05T01:59:27.658Z,8.21
2023-05-05T02:01:56.387Z,8.28
2023-05-05T02:04:26.175Z,8.21
2023-05-05T02:06:54.617Z,8.22
2023-05-05T02:09:22.695Z,8.34
2023-05-05T02:11:50.675Z,8.22
2023-05-05T02:14:20.779Z,8.27
2023-05-05T02:16:48.670Z,8.28
2023-05-05T02:19:17.274Z,8.26
2023-05-05T02:21:46.522Z,8.33
2023-05-05T02:24:14.427Z,8.31
2023-05-05T02:26:44.333Z,8.33
2023-05-05T02:29:17.826Z,8.40
2023-05-05T02:31:49.973Z,8.37
2023-05-05T02:34:27.765Z,8.43
2023-05-05T02:36:59.712Z,8.41
2023-05-05T02:39:33.327Z,8.42
2023-05-05T02:42:05.005Z,8.43
2023-05-05T02:44:34.167Z,8.35
2023-05-05T02:47:03.871Z,8.44
2023-05-05T02:49:32.604Z,8.38
2023-05-05T02:52:02.538Z,8.40
2023-05-05T02:54:35.216Z,8.38
2023-05-05T02:57:08.803Z,8.38
2023-05-05T02:59:47.384Z,8.36
2023-05-05T03:02:21.371Z,8.50
2023-05-05T03:04:51.813Z,8.41
2023-05-05T03:07:27.396Z,8.41
2023-05-05T03:09:59.047Z,8.45
2023-05-05T03:12:29.748Z,8.39
2023-05-05T03:15:10.339Z,8.40
2023-05-05T03:17:39.075Z,8.41
2023-05-05T03:20:08.835Z,8.34
2023-05-05T03:22:41.849Z,8.29
2023-05-05T03:25:13.647Z,8.29
2023-05-05T03:27:42.122Z,8.27
2023-05-05T03:30:12.741Z,8.27
2023-05-05T03:32:47.854Z,8.27
2023-05-05T03:35:16.156Z,8.25
2023-05-05T03:37:45.727Z,8.29
2023-05-05T03:40:17.725Z,8.28
2023-05-05T03:42:45.840Z,8.27
2023-05-05T03:45:14.203Z,8.24
2023-05-05T03:47:42.236Z,8.29
2023-05-05T03:50:11.366Z,8.23
2023-05-05T03:52:39.884Z,8.26
2023-05-05T03:55:10.241Z,8.28
2023-05-05T03:57:38.134Z,8.28
2023-05-05T04:00:11.822Z,8.22
2023-05-05T04:02:45.562Z,8.18
2023-05-05T04:05:16.240Z,8.22
2023-05-05T04:07:44.660Z,8.29
2023-05-05T04:10:13.939Z,8.23
2023-05-05T04:12:41.938Z,8.23
2023-05-05T04:15:11.012Z,8.32
2023-05-05T04:17:39.070Z,8.31
2023-05-05T04:20:08.540Z,8.23
2023-05-05T04:22:36.944Z,8.27
2023-05-05T04:25:06.638Z,8.22
2023-05-05T04:27:36.275Z,8.28
2023-05-05T04:30:05.719Z,8.26
2023-05-05T04:32:35.034Z,8.28
2023-05-05T04:35:02.987Z,8.29
2023-05-05T04:37:31.285Z,8.26
2023-05-05T04:40:00.491Z,8.26
2023-05-05T04:42:29.291Z,8.34
2023-05-05T04:44:59.266Z,8.44
2023-05-05T04:47:27.304Z,8.31
2023-05-05T04:49:56.048Z,8.28
2023-05-05T04:52:24.104Z,8.32
2023-05-05T04:54:53.052Z,8.40
2023-05-05T04:57:20.968Z,8.30
2023-05-05T04:59:48.968Z,8.44
2023-05-05T05:02:18.356Z,8.50
2023-05-05T05:04:46.851Z,8.45
2023-05-05T05:07:15.480Z,8.46
2023-05-05T05:09:43.725Z,8.39
2023-05-05T05:12:11.654Z,8.45
2023-05-05T05:14:39.618Z,8.53
2023-05-05T05:17:08.014Z,8.50
2023-05-05T05:19:37.385Z,8.47
2023-05-05T05:22:05.658Z,8.47
2023-05-05T05:24:36.739Z,8.46
2023-05-05T05:27:09.828Z,8.57
2023-05-05T05:29:38.828Z,8.52
2023-05-05T05:32:06.995Z,8.52
2023-05-05T05:34:35.454Z,8.49
2023-05-05T05:37:05.985Z,8.59
2023-05-05T05:39:34.289Z,8.67
2023-05-05T05:42:02.834Z,8.61
2023-05-05T05:44:31.111Z,8.63
2023-05-05T05:46:59.686Z,8.60
2023-05-05T05:49:28.082Z,8.56
2023-05-05T05:51:56.883Z,8.59
2023-05-05T05:54:26.578Z,8.58
2023-05-05T05:56:54.464Z,8.61
2023-05-05T05:59:22.569Z,8.71
2023-05-05T06:01:50.534Z,8.70
2023-05-05T06:04:18.704Z,8.72
2023-05-05T06:06:46.650Z,8.66
2023-05-05T06:09:14.959Z,8.78
2023-05-05T06:11:44.719Z,8.74
2023-05-05T06:14:12.707Z,8.85
2023-05-05T06:16:40.774Z,8.88
2023-05-05T06:19:12.596Z,8.83
2023-05-05T06:21:40.865Z,8.88
2023-05-05T06:24:08.824Z,8.91
2023-05-05T06:26:36.932Z,8.92
2023-05-05T06:29:06.828Z,8.98
2023-05-05T06:31:34.701Z,9.04
2023-05-05T06:34:02.959Z,9.07
2023-05-05T06:36:32.041Z,9.03
2023-05-05T06:38:59.963Z,9.06
2023-05-05T06:41:27.835Z,9.03
2023-05-05T06:43:58.548Z,9.04
2023-05-05T06:46:28.230Z,9.09
2023-05-05T06:48:56.200Z,9.26
2023-05-05T06:51:24.056Z,9.38
2023-05-05T06:53:52.324Z,9.49
2023-05-05T06:56:20.226Z,9.55
2023-05-05T06:58:48.097Z,9.48
2023-05-05T07:01:16.032Z,9.62
2023-05-05T07:03:45.836Z,9.72
2023-05-05T07:06:13.801Z,9.82
2023-05-05T07:08:41.678Z,9.94
2023-05-05T07:11:09.556Z,9.49
2023-05-05T07:13:37.394Z,9.44
2023-05-05T07:16:06.585Z,9.38
2023-05-05T07:18:34.930Z,9.32
2023-05-05T07:21:05.942Z,9.53
2023-05-05T07:23:35.129Z,9.70
2023-05-05T07:26:02.977Z,9.99
2023-05-05T07:28:30.828Z,9.95
2023-05-05T07:30:58.685Z,9.76
2023-05-05T07:33:27.682Z,9.92
2023-05-05T07:35:55.651Z,9.95
2023-05-05T07:38:25.721Z,9.91
2023-05-05T07:40:53.654Z,10.11
2023-05-05T07:43:21.551Z,10.32
2023-05-05T07:45:49.733Z,10.09
2023-05-05T07:48:17.643Z,10.02
2023-05-05T07:50:45.610Z,10.38
2023-05-05T07:53:15.082Z,10.39
2023-05-05T07:55:44.589Z,10.56
2023-05-05T07:58:12.481Z,10.26
2023-05-05T08:00:40.957Z,10.32
2023-05-05T08:03:11.606Z,10.53
2023-05-05T08:05:40.844Z,10.38
2023-05-05T08:08:08.843Z,10.22
2023-05-05T08:10:36.692Z,10.61
2023-05-05T08:13:06.256Z,10.58
2023-05-05T08:15:34.173Z,10.38
2023-05-05T08:18:02.112Z,10.39
2023-05-05T08:20:30.589Z,10.24
2023-05-05T08:22:58.853Z,10.31
2023-05-05T08:25:27.490Z,10.41
2023-05-05T08:27:55.710Z,10.52
2023-05-05T08:30:24.944Z,10.42
2023-05-05T08:32:52.925Z,10.44
2023-05-05T08:35:21.030Z,10.38
2023-05-05T08:37:48.994Z,10.40
2023-05-05T08:40:17.199Z,10.51
2023-05-05T08:42:46.431Z,10.36
2023-05-05T08:45:14.526Z,10.58
2023-05-05T08:47:44.583Z,10.84
2023-05-05T08:50:12.998Z,10.88
2023-05-05T08:52:44.333Z,10.68
2023-05-05T08:55:20.784Z,10.76
2023-05-05T08:57:52.959Z,10.69
2023-05-05T09:00:22.040Z,10.97
2023-05-05T09:02:51.899Z,10.83
2023-05-05T09:05:20.637Z,10.83
2023-05-05T09:07:48.976Z,10.83
2023-05-05T09:10:16.990Z,10.84
2023-05-05T09:12:45.525Z,11.09
2023-05-05T09:15:14.674Z,11.10
2023-05-05T09:17:43.108Z,10.87
2023-05-05T09:20:14.014Z,11.07
2023-05-05T09:22:42.900Z,10.98
2023-05-05T09:25:12.643Z,11.04
2023-05-05T09:27:42.092Z,11.20
2023-05-05T09:30:12.608Z,11.36
2023-05-05T09:32:47.721Z,11.11
2023-05-05T09:35:19.188Z,11.65
2023-05-05T09:37:48.611Z,10.95
2023-05-05T09:40:17.795Z,11.01
2023-05-05T09:42:46.004Z,11.09
2023-05-05T09:45:27.385Z,11.19
2023-05-05T09:47:59.899Z,11.00
2023-05-05T09:50:32.639Z,11.50
2023-05-05T09:53:02.464Z,11.68
2023-05-05T09:55:31.370Z,11.19
2023-05-05T09:58:06.367Z,11.41
2023-05-05T10:00:39.624Z,11.41
2023-05-05T10:03:07.743Z,11.25
2023-05-05T10:05:48.184Z,11.37
2023-05-05T10:08:16.248Z,11.55
2023-05-05T10:10:52.415Z,11.44
2023-05-05T10:13:21.661Z,11.85
2023-05-05T10:15:51.938Z,11.55
2023-05-05T10:18:24.865Z,11.30
2023-05-05T10:20:59.147Z,11.28
2023-05-05T10:23:30.238Z,11.45
2023-05-05T10:26:02.964Z,11.43
2023-05-05T10:28:35.632Z,10.96
2023-05-05T10:31:10.086Z,11.30
2023-05-05T10:33:47.080Z,11.35
2023-05-05T10:36:17.930Z,11.47
2023-05-05T10:38:46.707Z,11.48
2023-05-05T10:41:15.069Z,11.18
2023-05-05T10:43:43.572Z,11.80
2023-05-05T10:46:11.729Z,11.86
2023-05-05T10:48:46.137Z,11.80
2023-05-05T10:51:39.288Z,11.21
2023-05-05T10:54:13.490Z,11.18
2023-05-05T10:56:42.274Z,11.62
2023-05-05T10:59:40.451Z,11.50
2023-05-05T11:02:25.618Z,12.53
2023-05-05T11:05:07.522Z,11.57
2023-05-05T11:07:37.062Z,11.29
2023-05-05T11:10:06.153Z,11.57
2023-05-05T11:12:38.772Z,12.09
2023-05-05T11:15:37.802Z,11.79
2023-05-05T11:18:08.293Z,11.92
2023-05-05T11:21:07.270Z,11.96
2023-05-05T11:23:37.245Z,11.82
2023-05-05T11:26:05.190Z,11.51
2023-05-05T11:28:33.220Z,11.78
2023-05-05T11:31:18.408Z,11.53
2023-05-05T11:33:46.801Z,11.48
2023-05-05T11:36:16.066Z,11.37
2023-05-05T11:39:00.037Z,11.30
2023-05-05T11:41:36.950Z,11.19
2023-05-05T11:44:11.896Z,11.55
2023-05-05T11:46:40.987Z,11.57
2023-05-05T11:49:10.032Z,11.50
2023-05-05T11:51:37.996Z,11.48
2023-05-05T11:54:07.355Z,11.51
2023-05-05T11:56:35.905Z,11.34
2023-05-05T11:59:09.334Z,11.46
2023-05-05T12:01:40.937Z,11.53
2023-05-05T12:04:09.737Z,11.66
2023-05-05T12:06:37.755Z,11.47
2023-05-05T12:09:07.140Z,11.34
2023-05-05T12:11:35.044Z,11.51
2023-05-05T12:14:10.433Z,11.39
2023-05-05T12:16:38.853Z,11.11
2023-05-05T12:19:07.401Z,11.33
2023-05-05T12:21:36.249Z,11.33
2023-05-05T12:24:04.279Z,11.20
2023-05-05T12:26:33.797Z,11.32
2023-05-05T12:29:02.080Z,11.35
2023-05-05T12:31:36.904Z,11.06
2023-05-05T12:34:05.549Z,11.17
2023-05-05T12:36:34.095Z,11.19
2023-05-05T12:39:02.034Z,11.29
2023-05-05T12:41:30.003Z,11.22
2023-05-05T12:44:00.345Z,11.06
2023-05-05T12:46:31.208Z,10.87
2023-05-05T12:49:05.179Z,10.98
2023-05-05T12:51:35.997Z,11.03
2023-05-05T12:54:05.732Z,11.02
2023-05-05T12:56:37.545Z,10.84
2023-05-05T12:59:08.790Z,10.74
2023-05-05T13:01:37.816Z,10.80
2023-05-05T13:04:12.824Z,11.07
2023-05-05T13:06:41.434Z,10.94
2023-05-05T13:09:10.068Z,11.04
2023-05-05T13:11:38.605Z,11.08
2023-05-05T13:14:08.344Z,11.04
2023-05-05T13:16:36.428Z,10.96
2023-05-05T13:19:04.354Z,10.94
2023-05-05T13:21:32.711Z,10.89
2023-05-05T13:24:18.286Z,10.75
2023-05-05T13:26:48.830Z,10.95
2023-05-05T13:29:18.430Z,10.81
2023-05-05T13:31:47.228Z,10.68
2023-05-05T13:34:15.530Z,10.76
2023-05-05T13:36:43.365Z,10.96
2023-05-05T13:39:11.325Z,11.17
2023-05-05T13:41:42.241Z,11.05
2023-05-05T13:44:10.199Z,11.18
2023-05-05T13:46:39.446Z,11.13
2023-05-05T13:49:07.429Z,11.23
2023-05-05T13:51:35.690Z,11.00
2023-05-05T13:54:04.041Z,11.12
2023-05-05T13:56:31.972Z,11.12
2023-05-05T13:58:59.890Z,10.89
2023-05-05T14:01:27.876Z,10.57
2023-05-05T14:03:57.851Z,10.73
2023-05-05T14:06:26.481Z,10.84
2023-05-05T14:08:54.551Z,10.76
2023-05-05T14:11:22.962Z,10.93
2023-05-05T14:13:52.041Z,10.75
2023-05-05T14:16:20.173Z,10.91
2023-05-05T14:18:48.320Z,10.85
2023-05-05T14:21:17.676Z,10.64
2023-05-05T14:23:45.621Z,10.55
2023-05-05T14:26:13.588Z,10.68
2023-05-05T14:28:42.309Z,10.87
2023-05-05T14:31:11.261Z,10.94
2023-05-05T14:33:39.457Z,10.73
2023-05-05T14:36:07.947Z,10.56
2023-05-05T14:38:37.377Z,10.71
2023-05-05T14:41:05.773Z,10.90
2023-05-05T14:43:33.737Z,10.62
2023-05-05T14:46:06.733Z,10.52
2023-05-05T14:48:35.236Z,10.46
2023-05-05T14:51:04.411Z,10.50
2023-05-05T14:53:32.672Z,10.42
2023-05-05T14:56:03.283Z,10.40
2023-05-05T14:58:31.465Z,10.64
2023-05-05T15:01:00.784Z,10.73
2023-05-05T15:03:29.070Z,10.75
2023-05-05T15:05:57.381Z,10.51
2023-05-05T15:08:25.368Z,10.38
2023-05-05T15:10:54.126Z,10.49
2023-05-05T15:13:23.632Z,10.58
2023-05-05T15:15:51.762Z,10.29
2023-05-05T15:18:20.121Z,9.98
2023-05-05T15:20:47.995Z,9.87
2023-05-05T15:23:16.166Z,9.75
2023-05-05T15:25:44.107Z,9.93
2023-05-05T15:28:11.947Z,9.96
2023-05-05T15:30:41.495Z,10.02
2023-05-05T15:33:09.415Z,9.98
2023-05-05T15:35:37.397Z,9.94
2023-05-05T15:38:05.578Z,10.04
2023-05-05T15:40:33.501Z,9.95
2023-05-05T15:43:01.349Z,9.84
2023-05-05T15:45:29.255Z,9.88
2023-05-05T15:47:58.624Z,9.73
2023-05-05T15:50:26.816Z,9.72
2023-05-05T15:52:56.806Z,9.66
2023-05-05T15:55:25.089Z,9.72
2023-05-05T15:57:53.044Z,9.57
2023-05-05T16:00:21.517Z,9.50
2023-05-05T16:02:49.478Z,9.42
2023-05-05T16:05:20.712Z,9.30
2023-05-05T16:07:50.698Z,9.31
2023-05-05T16:10:19.468Z,9.35
2023-05-05T16:12:47.435Z,9.47
2023-05-05T16:15:15.733Z,9.37
2023-05-05T16:17:43.958Z,9.40
2023-05-05T16:20:12.926Z,9.24
2023-05-05T16:22:42.378Z,9.10
2023-05-05T16:25:11.130Z,9.10
2023-05-05T16:27:39.286Z,9.06
2023-05-05T16:30:08.874Z,8.96
2023-05-05T16:32:36.769Z,9.01
2023-05-05T16:35:07.288Z,8.98
2023-05-05T16:37:35.584Z,8.99
2023-05-05T16:40:06.016Z,8.93
2023-05-05T16:42:34.042Z,8.93
2023-05-05T16:45:01.906Z,8.85
2023-05-05T16:47:29.819Z,8.76
2023-05-05T16:49:58.153Z,8.71
2023-05-05T16:52:26.053Z,8.74
2023-05-05T16:54:55.635Z,8.56
2023-05-05T16:57:25.201Z,8.59
2023-05-05T16:59:56.206Z,8.53
2023-05-05T17:02:24.175Z,8.64
2023-05-05T17:04:52.194Z,8.50
2023-05-05T17:07:20.113Z,8.36
2023-05-05T17:09:48.341Z,8.34
2023-05-05T17:12:16.300Z,8.27
2023-05-05T17:14:46.348Z,8.31
2023-05-05T17:17:14.316Z,8.21
2023-05-05T17:19:42.779Z,8.24
2023-05-05T17:22:10.901Z,8.31
2023-05-05T17:24:39.454Z,8.33
2023-05-05T17:27:07.604Z,8.25
2023-05-05T17:29:40.770Z,8.21
2023-05-05T17:32:10.544Z,8.21
2023-05-05T17:34:38.676Z,8.26
2023-05-05T17:37:06.656Z,8.28
2023-05-05T17:39:34.634Z,8.22
2023-05-05T17:42:02.685Z,8.17
2023-05-05T17:44:31.482Z,8.04
2023-05-05T17:46:59.484Z,8.02
2023-05-05T17:49:28.740Z,7.90
2023-05-05T17:51:56.609Z,7.94
2023-05-05T17:54:30.855Z,7.93
2023-05-05T17:57:02.528Z,7.94
2023-05-05T17:59:33.412Z,7.91
2023-05-05T18:02:04.333Z,7.90
2023-05-05T18:04:37.404Z,7.85
2023-05-05T18:07:05.994Z,7.83
2023-05-05T18:09:37.150Z,7.88
2023-05-05T18:12:08.569Z,7.88
2023-05-05T18:14:39.418Z,7.84
2023-05-05T18:17:10.351Z,7.79
2023-05-05T18:19:46.622Z,7.79
2023-05-05T18:22:19.607Z,7.81
2023-05-05T18:24:50.509Z,7.77
2023-05-05T18:27:21.390Z,7.78
2023-05-05T18:29:53.138Z,7.85
2023-05-05T18:32:24.441Z,7.87
2023-05-05T18:34:56.793Z,7.89
2023-05-05T18:37:27.939Z,7.80
2023-05-05T18:39:58.879Z,7.75
2023-05-05T18:42:29.791Z,7.69
2023-05-05T18:45:00.771Z,7.74
2023-05-05T18:47:31.833Z,7.70
2023-05-05T18:50:04.591Z,7.83
2023-05-05T18:52:35.576Z,7.69
2023-05-05T18:55:07.535Z,7.71
2023-05-05T18:57:38.766Z,7.72
2023-05-05T19:00:11.438Z,7.72
2023-05-05T19:02:41.357Z,7.74
2023-05-05T19:05:12.865Z,7.67
2023-05-05T19:07:42.509Z,7.68
2023-05-05T19:10:12.753Z,7.65
2023-05-05T19:12:43.083Z,7.54
2023-05-05T19:15:13.266Z,7.60
2023-05-05T19:17:42.100Z,7.58
2023-05-05T19:20:13.444Z,7.65
2023-05-05T19:22:42.839Z,7.63
2023-05-05T19:25:14.488Z,7.58
2023-05-05T19:27:43.682Z,7.65
2023-05-05T19:30:13.744Z,7.63
2023-05-05T19:32:44.617Z,7.69
2023-05-05T19:35:17.384Z,7.60
2023-05-05T19:37:48.637Z,7.52
2023-05-05T19:40:19.767Z,7.51
2023-05-05T19:42:50.992Z,7.50
2023-05-05T19:45:22.214Z,7.46
2023-05-05T19:47:53.184Z,7.56
2023-05-05T19:50:26.350Z,7.52
2023-05-05T19:52:57.958Z,7.49
2023-05-05T19:55:28.950Z,7.46
2023-05-05T19:57:59.912Z,7.61
2023-05-05T20:00:31.289Z,7.52
2023-05-05T20:03:02.338Z,7.52
2023-05-05T20:05:34.712Z,7.57
2023-05-05T20:08:06.215Z,7.50
2023-05-05T20:10:37.154Z,7.63
2023-05-05T20:13:08.064Z,7.59
2023-05-05T20:15:39.470Z,7.55
2023-05-05T20:18:10.579Z,7.64
2023-05-05T20:20:43.183Z,7.68
2023-05-05T20:23:14.208Z,7.69
2023-05-05T20:25:45.542Z,7.64
2023-05-05T20:28:16.409Z,7.60
2023-05-05T20:30:48.224Z,7.63
2023-05-05T20:33:19.133Z,7.55
2023-05-05T20:35:51.430Z,7.57
2023-05-05T20:38:22.793Z,7.59
2023-05-05T20:40:53.703Z,7.54
2023-05-05T20:43:25.267Z,7.53
2023-05-05T20:45:56.577Z,7.53
2023-05-05T20:48:27.534Z,7.60
2023-05-05T20:50:59.882Z,7.52
2023-05-05T20:53:30.727Z,7.49
2023-05-05T20:56:01.728Z,7.53
2023-05-05T20:58:32.680Z,7.55
2023-05-05T21:01:03.600Z,7.52
2023-05-05T21:03:34.503Z,7.49
2023-05-05T21:06:07.087Z,7.52
2023-05-05T21:08:39.505Z,7.59
2023-05-05T21:11:10.599Z,7.62
2023-05-05T21:13:41.568Z,7.62
2023-05-05T21:16:12.815Z,7.65
2023-05-05T21:18:46.674Z,7.64
2023-05-05T21:21:18.902Z,7.71
2023-05-05T21:23:49.746Z,7.78
2023-05-05T21:26:21.154Z,7.68
2023-05-05T21:28:52.141Z,7.79
2023-05-05T21:31:23.412Z,7.75
2023-05-05T21:33:54.308Z,7.74
2023-05-05T21:36:27.435Z,7.76
2023-05-05T21:39:00.343Z,7.68
2023-05-05T21:41:31.422Z,7.71
2023-05-05T21:44:02.408Z,7.75
2023-05-05T21:46:33.368Z,7.68
2023-05-05T21:49:12.894Z,7.81
2023-05-05T21:51:46.272Z,7.81
2023-05-05T21:54:17.151Z,7.76
2023-05-05T21:56:48.057Z,7.83
2023-05-05T21:59:18.972Z,7.84
2023-05-05T22:01:50.142Z,7.82
2023-05-05T22:04:19.920Z,7.80
2023-05-05T22:06:51.021Z,7.83
2023-05-05T22:09:19.075Z,7.88
2023-05-05T22:11:49.979Z,7.88
2023-05-05T22:14:21.434Z,7.80
2023-05-05T22:16:52.329Z,7.79
2023-05-05T22:19:24.237Z,7.79
2023-05-05T22:21:57.265Z,7.85
2023-05-05T22:24:27.992Z,7.86
2023-05-05T22:26:58.974Z,7.86
2023-05-05T22:29:29.897Z,7.79
2023-05-05T22:32:00.838Z,7.80
2023-05-05T22:34:31.754Z,7.80
2023-05-05T22:37:04.016Z,7.85
2023-05-05T22:39:34.981Z,7.90
2023-05-05T22:42:06.143Z,7.80
2023-05-05T22:44:37.025Z,7.82
2023-05-05T22:47:09.127Z,7.85
2023-05-05T22:49:40.265Z,7.83
2023-05-05T22:52:12.576Z,7.80
2023-05-05T22:54:43.521Z,7.77
2023-05-05T22:57:14.428Z,7.73
2023-05-05T22:59:45.375Z,7.75
2023-05-05T23:02:16.299Z,7.78
2023-05-05T23:04:47.429Z,7.79
2023-05-05T23:07:19.877Z,7.79
2023-05-05T23:09:50.723Z,7.78
2023-05-05T23:12:21.595Z,7.74
2023-05-05T23:14:52.495Z,7.75
2023-05-05T23:17:23.493Z,7.75
2023-05-05T23:19:54.414Z,7.62
2023-05-05T23:22:24.616Z,7.65
2023-05-05T23:24:54.787Z,7.57
2023-05-05T23:27:23.778Z,7.50
2023-05-05T23:29:54.630Z,7.45
2023-05-05T23:32:25.644Z,7.44
2023-05-05T23:34:56.855Z,7.40
2023-05-05T23:37:29.107Z,7.42
2023-05-05T23:39:59.455Z,7.34
2023-05-05T23:42:30.330Z,7.35
2023-05-05T23:45:01.311Z,7.34
2023-05-05T23:47:32.328Z,7.36
2023-05-05T23:50:03.579Z,7.32
2023-05-05T23:52:35.863Z,7.29
2023-05-05T23:55:07.556Z,7.26
2023-05-05T23:57:39.018Z,7.26
